Time;durP1;ratioP1;P1;durP2;ratioP2;P2;SDS_P1;SDS_P2;PMS_P1;PMS_P2;Temp;Humidity;BMP_temperature;BMP_pressure;BME280_temperature;BME280_humidity;BME280_pressure;Samples;Min_cycle;Max_cycle;Signal;HPM_P1;HPM_P2
2023/01/11 00:01:01;;;;;;;0.93;0.60;;;3.80;99.90;;;;;;4165290;28;20201;-64
2023/01/11 00:03:04;;;;;;;5.00;0.80;;;3.80;99.90;;;;;;4165113;28;20242;-65
2023/01/11 00:05:06;;;;;;;2.03;0.83;;;4.00;99.90;;;;;;4164835;28;20604;-65
2023/01/11 00:07:06;;;;;;;1.03;0.70;;;4.00;99.90;;;;;;4162989;28;20432;-64
2023/01/11 00:09:07;;;;;;;0.83;0.70;;;3.80;99.90;;;;;;4165002;28;20439;-66
2023/01/11 00:11:15;;;;;;;1.43;0.60;;;3.70;99.90;;;;;;4165119;28;20248;-64
2023/01/11 00:13:16;;;;;;;2.70;0.90;;;3.70;99.90;;;;;;4165065;28;20207;-63
2023/01/11 00:15:17;;;;;;;1.67;0.90;;;3.70;99.90;;;;;;4164969;28;20419;-63
2023/01/11 00:17:17;;;;;;;2.53;0.70;;;3.60;99.90;;;;;;4164072;28;20276;-64
2023/01/11 00:19:18;;;;;;;1.30;0.90;;;3.60;99.90;;;;;;4163378;28;20588;-64
2023/01/11 00:21:21;;;;;;;1.20;0.77;;;3.50;99.90;;;;;;4164921;28;20212;-64
2023/01/11 00:23:21;;;;;;;1.37;0.90;;;3.60;99.90;;;;;;4164838;28;20196;-64
2023/01/11 00:25:22;;;;;;;4.80;1.10;;;3.50;99.90;;;;;;4164656;28;20424;-64
2023/01/11 00:27:23;;;;;;;0.90;0.90;;;3.30;99.90;;;;;;4164248;28;20479;-63
2023/01/11 00:29:23;;;;;;;2.03;0.90;;;3.30;99.90;;;;;;4164771;28;20181;-63
2023/01/11 00:31:24;;;;;;;3.80;0.90;;;3.20;99.90;;;;;;4164804;28;20765;-65
2023/01/11 00:33:25;;;;;;;1.30;0.90;;;3.20;99.90;;;;;;4164769;28;20236;-64
2023/01/11 00:35:29;;;;;;;1.13;0.80;;;3.20;99.90;;;;;;4165091;28;20189;-64
2023/01/11 00:37:29;;;;;;;1.00;0.90;;;3.40;99.90;;;;;;4161755;28;20189;-64
2023/01/11 00:39:30;;;;;;;1.97;0.80;;;3.60;99.90;;;;;;4164693;28;20460;-64
2023/01/11 00:48:29;;;;;;;0.70;0.60;;;3.40;99.90;;;;;;4164323;28;20426;-64
2023/01/11 00:50:36;;;;;;;1.30;0.80;;;3.60;99.90;;;;;;4164138;28;20419;-65
2023/01/11 00:52:37;;;;;;;1.57;0.67;;;3.50;99.90;;;;;;4163214;28;20174;-64
2023/01/11 00:54:39;;;;;;;0.50;0.50;;;3.60;99.90;;;;;;4164252;28;20538;-64
2023/01/11 00:56:39;;;;;;;3.87;1.00;;;3.80;99.90;;;;;;4163651;28;20679;-64
2023/01/11 00:58:40;;;;;;;1.03;0.90;;;3.90;99.90;;;;;;4164328;28;20459;-64
2023/01/11 01:00:41;;;;;;;0.73;0.70;;;4.10;99.90;;;;;;4164234;28;20196;-64
2023/01/11 01:02:41;;;;;;;2.50;0.90;;;4.00;99.90;;;;;;4164099;28;20251;-64
2023/01/11 01:04:42;;;;;;;1.83;0.80;;;4.20;99.90;;;;;;4164234;28;20216;-64
2023/01/11 01:06:43;;;;;;;1.17;0.70;;;4.40;99.90;;;;;;4163402;28;20188;-64
2023/01/11 01:08:43;;;;;;;0.97;0.60;;;4.40;99.90;;;;;;4163894;28;20181;-64
2023/01/11 01:10:44;;;;;;;1.90;0.60;;;4.50;99.90;;;;;;4162970;28;20196;-64
2023/01/11 01:15:05;;;;;;;0.60;0.50;;;4.70;99.90;;;;;;4164222;28;20176;-64
2023/01/11 01:17:08;;;;;;;0.67;0.60;;;4.80;99.90;;;;;;4161943;28;20480;-64
2023/01/11 01:19:08;;;;;;;0.60;0.60;;;4.90;99.90;;;;;;4163978;28;20471;-64
2023/01/11 01:21:09;;;;;;;0.53;0.53;;;5.00;99.90;;;;;;4163821;28;20499;-64
2023/01/11 01:23:10;;;;;;;0.97;0.70;;;5.10;99.90;;;;;;4162630;28;20602;-64
2023/01/11 01:25:10;;;;;;;0.57;0.50;;;5.20;99.90;;;;;;4164085;28;20195;-64
2023/01/11 01:27:16;;;;;;;2.10;0.60;;;5.20;99.90;;;;;;4163293;28;20185;-64
2023/01/11 01:29:17;;;;;;;0.80;0.80;;;5.20;99.90;;;;;;4163638;28;20875;-65
2023/01/11 01:31:18;;;;;;;0.60;0.60;;;5.20;99.90;;;;;;4163826;28;20455;-65
2023/01/11 01:33:18;;;;;;;1.43;0.60;;;5.20;99.90;;;;;;4163501;28;20181;-63
2023/01/11 01:35:19;;;;;;;2.97;0.70;;;5.20;99.90;;;;;;4163602;28;20205;-65
2023/01/11 01:37:20;;;;;;;1.40;0.60;;;5.30;99.90;;;;;;4163081;28;20188;-66
2023/01/11 01:39:20;;;;;;;0.60;0.60;;;5.30;99.90;;;;;;4163373;28;20221;-65
2023/01/11 01:41:21;;;;;;;1.53;0.80;;;5.40;99.90;;;;;;4163322;28;20753;-64
2023/01/11 01:43:44;;;;;;;0.73;0.60;;;5.50;99.90;;;;;;4163526;28;20178;-64
2023/01/11 01:45:47;;;;;;;1.67;0.70;;;5.40;99.90;;;;;;4163402;28;20170;-64
2023/01/11 01:48:00;;;;;;;0.53;0.53;;;5.50;99.90;;;;;;4161736;28;20279;-64
2023/01/11 01:50:09;;;;;;;0.70;0.60;;;5.40;99.90;;;;;;4161806;28;20426;-63
2023/01/11 01:52:11;;;;;;;0.60;0.60;;;5.40;99.90;;;;;;4162686;28;20451;-63
2023/01/11 01:54:19;;;;;;;2.63;0.90;;;5.40;99.90;;;;;;4163898;28;20448;-63
2023/01/11 01:56:36;;;;;;;1.47;0.60;;;5.30;99.90;;;;;;4163510;28;20168;-64
2023/01/11 01:58:45;;;;;;;1.03;0.60;;;5.40;99.90;;;;;;4163464;28;20509;-63
2023/01/11 02:00:46;;;;;;;0.50;0.50;;;5.40;99.90;;;;;;4162509;28;20495;-63
2023/01/11 02:02:48;;;;;;;0.80;0.60;;;5.40;99.90;;;;;;4162291;28;20706;-64
2023/01/11 02:04:49;;;;;;;1.13;0.60;;;5.30;99.90;;;;;;4162431;28;20224;-64
2023/01/11 02:06:55;;;;;;;0.87;0.60;;;5.30;99.90;;;;;;4161331;28;20454;-64
2023/01/11 02:09:04;;;;;;;1.33;0.70;;;5.30;99.90;;;;;;4161935;28;20288;-64
2023/01/11 02:11:28;;;;;;;0.70;0.60;;;5.30;99.90;;;;;;4163254;28;20203;-64
2023/01/11 02:13:28;;;;;;;0.93;0.70;;;5.30;99.90;;;;;;4162993;28;20197;-64
2023/01/11 02:15:28;;;;;;;0.60;0.60;;;5.20;99.90;;;;;;4161772;28;20977;-64
2023/01/11 02:17:29;;;;;;;0.50;0.50;;;5.10;99.90;;;;;;4161199;28;20178;-65
2023/01/11 02:19:56;;;;;;;0.50;0.50;;;5.00;99.90;;;;;;4162940;28;20200;-64
2023/01/11 02:22:50;;;;;;;0.60;0.60;;;4.90;99.90;;;;;;4161515;28;20220;-64
2023/01/11 02:24:59;;;;;;;0.50;0.43;;;4.70;99.90;;;;;;4162997;28;20462;-63
2023/01/11 02:27:28;;;;;;;0.50;0.50;;;4.60;99.90;;;;;;4162377;28;20431;-63
2023/01/11 02:30:03;;;;;;;1.43;0.50;;;4.50;99.90;;;;;;4158863;28;20427;-63
2023/01/11 02:32:12;;;;;;;0.50;0.50;;;4.40;99.90;;;;;;4161301;28;20522;-64
2023/01/11 02:34:41;;;;;;;0.37;0.37;;;4.40;99.90;;;;;;4162562;28;21251;-65
2023/01/11 02:36:59;;;;;;;0.50;0.47;;;4.40;99.90;;;;;;4162219;28;20415;-66
2023/01/11 02:39:31;;;;;;;0.93;0.70;;;4.40;99.90;;;;;;4162442;28;20462;-64
2023/01/11 02:46:48;;;;;;;0.60;0.60;;;4.30;99.90;;;;;;4158525;28;20459;-64
2023/01/11 02:49:07;;;;;;;1.20;0.60;;;4.40;99.90;;;;;;4161279;28;20415;-64
2023/01/11 02:51:27;;;;;;;1.00;0.60;;;4.50;99.90;;;;;;4146327;28;20860;-64
2023/01/11 02:53:40;;;;;;;1.23;0.60;;;4.50;99.90;;;;;;4160980;28;20942;-64
2023/01/11 02:55:47;;;;;;;0.50;0.40;;;4.60;99.90;;;;;;4144897;28;20464;-65
2023/01/11 02:57:51;;;;;;;1.23;0.77;;;4.60;99.90;;;;;;4160592;28;20412;-65
2023/01/11 02:59:56;;;;;;;1.07;0.50;;;4.70;99.90;;;;;;4161089;28;20424;-64
2023/01/11 03:01:58;;;;;;;0.40;0.40;;;4.60;99.90;;;;;;4146207;28;20440;-64
2023/01/11 03:03:59;;;;;;;0.40;0.40;;;4.70;99.90;;;;;;4146088;28;20456;-64
2023/01/11 03:06:19;;;;;;;0.40;0.40;;;4.70;99.90;;;;;;4146221;28;20420;-64
2023/01/11 03:09:02;;;;;;;0.50;0.50;;;4.80;99.90;;;;;;4144836;28;20163;-64
2023/01/11 03:13:59;;;;;;;1.17;0.60;;;4.90;99.90;;;;;;4144828;28;20467;-64
2023/01/11 03:16:22;;;;;;;0.40;0.40;;;4.90;99.90;;;;;;4160776;28;20443;-64
2023/01/11 03:19:00;;;;;;;0.47;0.47;;;4.80;99.90;;;;;;4160760;28;20455;-64
2023/01/11 03:21:14;;;;;;;0.40;0.40;;;4.70;99.90;;;;;;4143722;28;20954;-65
2023/01/11 03:23:37;;;;;;;0.57;0.50;;;4.70;99.90;;;;;;4146024;28;20432;-65
2023/01/11 03:25:47;;;;;;;0.40;0.40;;;4.70;99.90;;;;;;4147523;28;20506;-63
2023/01/11 03:28:16;;;;;;;0.40;0.40;;;4.90;99.90;;;;;;4160435;28;21295;-66
2023/01/11 03:30:34;;;;;;;0.60;0.50;;;5.10;99.90;;;;;;4160750;28;20408;-65
2023/01/11 03:32:49;;;;;;;1.03;0.50;;;5.20;99.90;;;;;;4160885;28;20790;-64
2023/01/11 03:35:07;;;;;;;0.50;0.50;;;5.20;99.90;;;;;;4162469;28;20462;-65
2023/01/11 03:37:25;;;;;;;1.17;0.47;;;5.40;99.90;;;;;;4161700;28;20408;-65
2023/01/11 03:39:36;;;;;;;0.60;0.50;;;5.40;99.90;;;;;;4161135;28;20548;-64
2023/01/11 03:41:40;;;;;;;0.67;0.43;;;5.40;99.90;;;;;;4162270;28;20444;-64
2023/01/11 03:43:45;;;;;;;0.53;0.40;;;5.30;99.90;;;;;;4162039;28;20421;-63
2023/01/11 03:46:06;;;;;;;0.37;0.37;;;5.50;99.90;;;;;;4161096;28;20419;-64
2023/01/11 03:48:14;;;;;;;0.53;0.53;;;5.50;99.90;;;;;;4160186;28;20855;-64
2023/01/11 03:50:17;;;;;;;4.23;3.50;;;5.40;99.90;;;;;;4160805;28;20510;-64
2023/01/11 03:52:26;;;;;;;0.37;0.37;;;5.40;99.90;;;;;;4153719;28;20641;-64
2023/01/11 03:54:29;;;;;;;0.40;0.40;;;5.50;99.90;;;;;;4161635;28;20415;-64
2023/01/11 03:57:00;;;;;;;0.80;0.53;;;5.40;99.90;;;;;;4161238;28;20925;-64
2023/01/11 03:59:01;;;;;;;0.30;0.30;;;5.30;99.90;;;;;;4158066;28;20221;-63
2023/01/11 04:01:02;;;;;;;0.40;0.40;;;5.20;99.90;;;;;;4162147;28;20474;-64
2023/01/11 04:03:04;;;;;;;0.37;0.37;;;5.20;99.90;;;;;;4160977;28;20255;-63
2023/01/11 04:05:07;;;;;;;0.50;0.50;;;5.10;99.90;;;;;;4160892;28;20910;-64
2023/01/11 04:07:07;;;;;;;0.43;0.43;;;5.10;99.90;;;;;;4160051;28;20510;-64
2023/01/11 04:09:08;;;;;;;0.50;0.50;;;5.10;99.90;;;;;;4160565;28;20455;-64
2023/01/11 04:11:09;;;;;;;0.40;0.40;;;5.10;99.90;;;;;;4162272;28;20220;-64
2023/01/11 04:13:09;;;;;;;0.40;0.40;;;5.20;99.90;;;;;;4163548;28;20668;-64
2023/01/11 04:15:12;;;;;;;0.67;0.50;;;5.10;99.90;;;;;;4165154;28;20803;-64
2023/01/11 04:17:12;;;;;;;0.60;0.60;;;5.10;99.90;;;;;;4163979;28;20181;-64
2023/01/11 04:19:13;;;;;;;1.03;0.50;;;5.20;99.90;;;;;;4164833;28;20470;-64
2023/01/11 04:21:14;;;;;;;0.93;0.50;;;5.20;99.90;;;;;;4164947;28;20193;-66
2023/01/11 04:23:14;;;;;;;0.80;0.60;;;5.10;99.90;;;;;;4164893;28;20256;-68
2023/01/11 04:25:15;;;;;;;1.30;0.90;;;5.10;99.90;;;;;;4163534;28;20246;-65
2023/01/11 04:27:16;;;;;;;0.60;0.60;;;5.20;99.90;;;;;;4164011;28;20177;-64
2023/01/11 04:29:16;;;;;;;1.13;0.50;;;5.20;99.90;;;;;;4163167;28;20549;-64
2023/01/11 04:31:17;;;;;;;0.70;0.70;;;5.20;99.90;;;;;;4164668;28;20544;-64
2023/01/11 04:33:18;;;;;;;0.70;0.70;;;5.30;99.90;;;;;;4164585;28;20185;-64
2023/01/11 04:35:19;;;;;;;0.70;0.70;;;5.40;99.90;;;;;;4164559;28;20188;-65
2023/01/11 04:37:19;;;;;;;0.60;0.60;;;5.50;99.90;;;;;;4163629;28;20559;-65
2023/01/11 04:39:20;;;;;;;1.07;0.97;;;5.50;99.90;;;;;;4164679;28;20344;-63
2023/01/11 04:43:40;;;;;;;0.77;0.70;;;5.50;99.90;;;;;;4164233;28;20171;-63
2023/01/11 04:45:40;;;;;;;1.90;1.40;;;5.60;99.90;;;;;;4164625;28;20257;-64
2023/01/11 04:47:41;;;;;;;1.17;0.70;;;5.70;99.90;;;;;;4160087;28;20224;-65
2023/01/11 04:49:42;;;;;;;1.20;0.80;;;5.90;99.90;;;;;;4163087;28;20575;-64
2023/01/11 04:51:43;;;;;;;1.20;0.90;;;5.80;99.90;;;;;;4164457;28;20217;-65
2023/01/11 04:53:47;;;;;;;0.67;0.63;;;5.80;99.90;;;;;;4164344;28;20840;-64
2023/01/11 04:55:48;;;;;;;0.77;0.77;;;5.90;99.90;;;;;;4164616;28;20600;-64
2023/01/11 04:57:49;;;;;;;0.80;0.70;;;5.90;99.90;;;;;;4163623;28;20466;-65
2023/01/11 04:59:49;;;;;;;1.00;0.90;;;5.80;99.90;;;;;;4164047;28;20217;-65
2023/01/11 05:01:50;;;;;;;0.97;0.70;;;5.90;99.90;;;;;;4164171;28;20198;-64
2023/01/11 05:03:51;;;;;;;0.70;0.70;;;6.00;99.90;;;;;;4164234;28;20178;-65
2023/01/11 05:05:59;;;;;;;1.10;1.00;;;6.10;99.90;;;;;;4164000;28;20243;-67
2023/01/11 05:08:00;;;;;;;0.50;0.50;;;6.10;99.90;;;;;;4163503;28;20206;-64
2023/01/11 05:10:01;;;;;;;0.50;0.50;;;6.10;99.90;;;;;;4164169;28;20178;-64
2023/01/11 05:12:02;;;;;;;0.70;0.70;;;6.10;99.90;;;;;;4163856;28;20210;-64
2023/01/11 05:14:03;;;;;;;0.60;0.60;;;6.00;99.90;;;;;;4164188;28;20181;-64
2023/01/11 05:16:04;;;;;;;0.90;0.80;;;6.10;99.90;;;;;;4163808;28;20709;-64
2023/01/11 05:18:04;;;;;;;1.00;0.60;;;6.00;99.90;;;;;;4163320;28;20540;-64
2023/01/11 05:20:06;;;;;;;0.50;0.50;;;6.10;99.90;;;;;;4164078;28;20265;-64
2023/01/11 05:22:07;;;;;;;0.60;0.60;;;6.10;99.90;;;;;;4163992;28;20795;-64
2023/01/11 05:24:16;;;;;;;1.07;0.97;;;6.10;99.90;;;;;;4163012;28;20242;-64
2023/01/11 05:26:30;;;;;;;1.13;0.90;;;6.10;99.90;;;;;;4163542;28;20255;-64
2023/01/11 05:28:31;;;;;;;2.83;2.00;;;6.20;99.90;;;;;;4163337;28;20176;-65
2023/01/11 05:30:31;;;;;;;1.23;1.13;;;6.20;99.90;;;;;;4163709;28;20555;-64
2023/01/11 05:32:32;;;;;;;0.63;0.63;;;6.30;99.90;;;;;;4163670;28;20181;-65
2023/01/11 05:34:33;;;;;;;0.50;0.50;;;6.50;99.90;;;;;;4163376;28;20193;-67
2023/01/11 05:36:34;;;;;;;0.60;0.60;;;6.70;99.90;;;;;;4162726;28;20250;-64
2023/01/11 05:38:35;;;;;;;0.50;0.50;;;6.80;99.90;;;;;;4163298;28;20820;-64
2023/01/11 05:40:36;;;;;;;0.40;0.40;;;6.90;99.90;;;;;;4163146;28;20181;-64
2023/01/11 05:42:37;;;;;;;0.87;0.87;;;7.00;99.90;;;;;;4163146;28;20177;-65
2023/01/11 05:46:57;;;;;;;0.70;0.70;;;7.00;99.90;;;;;;4162023;28;20204;-64
2023/01/11 05:49:00;;;;;;;0.93;0.70;;;7.20;99.90;;;;;;4162516;28;20207;-65
2023/01/11 05:51:00;;;;;;;0.40;0.40;;;7.20;99.90;;;;;;4162806;28;20208;-65
2023/01/11 05:53:01;;;;;;;0.70;0.70;;;7.20;99.90;;;;;;4162816;28;20185;-64
2023/01/11 05:55:02;;;;;;;1.03;1.03;;;7.10;99.90;;;;;;4162951;28;20261;-63
2023/01/11 05:57:08;;;;;;;1.43;0.60;;;7.20;99.90;;;;;;4162452;28;20197;-64
2023/01/11 05:59:08;;;;;;;0.40;0.40;;;7.30;99.90;;;;;;4162838;28;20248;-64
2023/01/11 06:01:12;;;;;;;0.40;0.40;;;7.40;99.90;;;;;;4162819;28;20668;-64
2023/01/11 06:03:12;;;;;;;0.50;0.50;;;7.40;99.90;;;;;;4162773;28;20622;-64
2023/01/11 06:05:13;;;;;;;0.60;0.60;;;7.50;99.90;;;;;;4162771;28;20216;-64
2023/01/11 06:07:13;;;;;;;1.00;0.40;;;7.50;99.90;;;;;;4160417;28;20199;-63
2023/01/11 06:09:14;;;;;;;0.50;0.50;;;7.50;99.90;;;;;;4150040;28;20212;-64
2023/01/11 06:11:15;;;;;;;0.30;0.30;;;7.50;99.90;;;;;;4162651;28;20252;-64
2023/01/11 06:13:27;;;;;;;0.87;0.77;;;7.50;99.90;;;;;;4162470;28;20197;-64
2023/01/11 06:15:28;;;;;;;0.93;0.60;;;7.40;99.90;;;;;;4162531;28;20745;-64
2023/01/11 06:17:29;;;;;;;0.50;0.50;;;7.40;99.90;;;;;;4161916;28;20192;-64
2023/01/11 06:19:29;;;;;;;0.47;0.47;;;7.50;99.90;;;;;;4162338;28;20209;-64
2023/01/11 06:21:31;;;;;;;0.60;0.50;;;7.40;99.90;;;;;;4162388;28;20240;-64
2023/01/11 06:23:35;;;;;;;0.70;0.70;;;7.50;99.90;;;;;;4162524;28;20200;-64
2023/01/11 06:25:36;;;;;;;0.83;0.83;;;7.40;99.90;;;;;;4162298;28;20185;-64
2023/01/11 06:27:37;;;;;;;0.50;0.50;;;7.30;99.90;;;;;;4161617;28;20189;-63
2023/01/11 06:29:37;;;;;;;0.30;0.30;;;7.40;99.90;;;;;;4162262;28;20243;-63
2023/01/11 06:31:38;;;;;;;0.40;0.40;;;7.30;99.90;;;;;;4162951;28;20221;-63
2023/01/11 06:33:39;;;;;;;0.50;0.50;;;7.30;99.90;;;;;;4162433;28;20184;-64
2023/01/11 06:35:42;;;;;;;1.10;1.10;;;7.30;99.90;;;;;;4161988;28;20188;-64
2023/01/11 06:37:43;;;;;;;0.60;0.60;;;7.30;99.90;;;;;;4160206;28;20189;-64
2023/01/11 06:39:43;;;;;;;1.90;1.60;;;7.30;99.90;;;;;;4162123;28;20599;-64
2023/01/11 06:41:44;;;;;;;1.57;1.20;;;7.40;99.90;;;;;;4162101;28;20606;-64
2023/01/11 06:43:45;;;;;;;1.03;0.80;;;7.40;99.90;;;;;;4160538;28;20602;-64
2023/01/11 06:45:46;;;;;;;1.00;0.90;;;7.40;99.90;;;;;;4147644;28;20239;-64
2023/01/11 06:47:47;;;;;;;0.90;0.60;;;7.50;99.90;;;;;;4145335;28;20182;-64
2023/01/11 06:49:47;;;;;;;1.80;1.70;;;7.50;99.90;;;;;;4145880;28;20192;-64
2023/01/11 06:51:48;;;;;;;1.53;1.20;;;7.40;99.90;;;;;;4145755;28;20302;-64
2023/01/11 06:53:49;;;;;;;0.70;0.70;;;7.50;99.90;;;;;;4145950;28;20189;-64
2023/01/11 06:55:51;;;;;;;1.30;1.20;;;7.50;99.90;;;;;;4145857;28;20196;-64
2023/01/11 06:57:52;;;;;;;1.00;0.90;;;7.50;99.90;;;;;;4145217;28;20205;-65
2023/01/11 06:59:53;;;;;;;0.97;0.80;;;7.50;99.90;;;;;;4145704;28;20220;-64
2023/01/11 07:01:54;;;;;;;0.67;0.50;;;7.50;99.90;;;;;;4145968;28;20213;-64
2023/01/11 07:03:54;;;;;;;0.47;0.47;;;7.50;99.90;;;;;;4145742;28;20182;-64
2023/01/11 07:05:56;;;;;;;1.30;0.70;;;7.50;99.90;;;;;;4149304;28;20192;-64
2023/01/11 07:07:57;;;;;;;0.50;0.50;;;7.50;99.90;;;;;;4151388;28;20209;-64
2023/01/11 07:09:58;;;;;;;0.57;0.43;;;7.50;99.90;;;;;;4153477;28;20611;-64
2023/01/11 07:11:58;;;;;;;0.40;0.40;;;7.60;99.90;;;;;;4146936;28;20243;-64
2023/01/11 07:13:59;;;;;;;0.50;0.50;;;7.70;99.90;;;;;;4145579;28;20181;-64
2023/01/11 07:15:59;;;;;;;0.80;0.80;;;7.70;99.90;;;;;;4144617;28;20860;-64
2023/01/11 07:18:00;;;;;;;0.40;0.40;;;7.70;99.90;;;;;;4150141;28;20187;-65
2023/01/11 07:20:03;;;;;;;1.30;1.20;;;7.60;99.90;;;;;;4152055;28;20280;-64
2023/01/11 07:22:04;;;;;;;1.80;0.83;;;7.60;99.90;;;;;;4144042;28;20214;-65
2023/01/11 07:24:04;;;;;;;0.30;0.30;;;7.70;99.90;;;;;;4155447;28;20613;-64
2023/01/11 07:26:05;;;;;;;0.40;0.40;;;7.80;99.90;;;;;;4160467;28;20181;-64
2023/01/11 07:28:07;;;;;;;0.90;0.77;;;7.90;99.90;;;;;;4158981;28;20539;-64
2023/01/11 07:30:09;;;;;;;0.50;0.50;;;7.70;99.90;;;;;;4151809;28;20282;-65
2023/01/11 07:32:10;;;;;;;0.40;0.40;;;7.80;99.90;;;;;;4155700;28;20205;-65
2023/01/11 07:34:11;;;;;;;0.40;0.40;;;7.80;99.90;;;;;;4160468;28;20270;-65
2023/01/11 07:36:11;;;;;;;0.57;0.40;;;7.90;99.90;;;;;;4161775;28;20212;-65
2023/01/11 07:38:12;;;;;;;0.30;0.30;;;7.80;99.90;;;;;;4160995;28;20660;-65
2023/01/11 07:40:15;;;;;;;6.17;5.87;;;7.80;99.90;;;;;;4161600;28;20729;-65
2023/01/11 07:44:34;;;;;;;1.20;0.80;;;7.70;99.90;;;;;;4161585;28;20251;-65
2023/01/11 07:46:35;;;;;;;1.17;1.00;;;7.70;99.90;;;;;;4162123;28;20185;-65
2023/01/11 07:48:36;;;;;;;3.83;1.93;;;7.80;99.90;;;;;;4164725;28;20207;-64
2023/01/11 07:50:39;;;;;;;2.33;1.30;;;7.70;99.90;;;;;;4164670;28;20184;-65
2023/01/11 07:52:48;;;;;;;0.47;0.47;;;7.80;99.90;;;;;;4164758;28;20189;-65
2023/01/11 07:54:49;;;;;;;6.43;3.37;;;7.80;99.90;;;;;;4164829;28;20177;-65
2023/01/11 07:56:50;;;;;;;2.13;1.07;;;7.70;99.90;;;;;;4166804;28;20246;-64
2023/01/11 07:58:51;;;;;;;1.23;1.10;;;7.80;99.90;;;;;;4169893;28;20209;-64
2023/01/11 08:00:52;;;;;;;0.40;0.40;;;7.90;99.90;;;;;;4156900;28;20801;-64
2023/01/11 08:02:52;;;;;;;0.73;0.73;;;7.90;99.90;;;;;;4156305;28;20810;-65
2023/01/11 08:04:53;;;;;;;0.40;0.40;;;7.90;99.90;;;;;;4159731;28;20557;-64
2023/01/11 08:06:54;;;;;;;0.77;0.40;;;7.90;99.90;;;;;;4164197;28;20191;-64
2023/01/11 08:08:55;;;;;;;0.40;0.40;;;7.80;99.90;;;;;;4164580;28;20818;-65
2023/01/11 08:15:36;;;;;;;0.77;0.70;;;7.90;99.90;;;;;;4156312;28;20199;-65
2023/01/11 08:17:37;;;;;;;1.47;0.60;;;7.90;99.90;;;;;;4163154;28;20275;-65
2023/01/11 08:19:38;;;;;;;2.33;0.83;;;8.00;99.90;;;;;;4163809;28;20730;-65
2023/01/11 08:21:39;;;;;;;0.87;0.77;;;8.00;99.90;;;;;;4170613;28;20211;-66
2023/01/11 08:23:40;;;;;;;0.53;0.47;;;8.00;99.90;;;;;;4172574;28;20308;-66
2023/01/11 08:25:41;;;;;;;1.60;1.00;;;8.10;99.90;;;;;;4164169;28;20190;-66
2023/01/11 08:27:41;;;;;;;0.50;0.50;;;8.10;99.90;;;;;;4162120;28;20196;-66
2023/01/11 08:29:45;;;;;;;0.50;0.50;;;8.10;99.90;;;;;;4161125;28;20192;-64
2023/01/11 08:31:46;;;;;;;0.50;0.50;;;8.10;99.90;;;;;;4163916;28;20635;-64
2023/01/11 08:33:50;;;;;;;1.53;1.43;;;8.10;99.90;;;;;;4175055;28;20216;-65
2023/01/11 08:35:51;;;;;;;1.17;0.40;;;8.10;99.90;;;;;;4163715;28;20644;-65
2023/01/11 08:37:51;;;;;;;0.30;0.30;;;8.00;99.90;;;;;;4169531;28;20207;-64
2023/01/11 08:39:54;;;;;;;0.50;0.50;;;8.10;99.90;;;;;;4163786;28;20256;-64
2023/01/11 08:41:56;;;;;;;1.67;0.93;;;8.20;99.90;;;;;;4162724;28;20205;-64
2023/01/11 08:43:57;;;;;;;0.40;0.40;;;8.30;99.90;;;;;;4158176;28;20185;-63
2023/01/11 08:45:58;;;;;;;0.77;0.53;;;8.40;99.90;;;;;;4178478;28;20660;-62
2023/01/11 08:47:59;;;;;;;0.50;0.50;;;8.40;99.90;;;;;;4163932;28;20223;-63
2023/01/11 08:49:59;;;;;;;0.70;0.63;;;8.40;99.90;;;;;;4179388;28;20180;-65
2023/01/11 08:52:00;;;;;;;1.37;0.90;;;8.30;99.90;;;;;;4164705;28;20671;-66
2023/01/11 08:54:01;;;;;;;0.50;0.50;;;8.30;99.90;;;;;;4179146;28;20250;-66
2023/01/11 08:56:02;;;;;;;0.67;0.60;;;8.30;99.90;;;;;;4163599;28;20197;-66
2023/01/11 08:58:02;;;;;;;1.47;1.37;;;8.30;99.90;;;;;;4177804;28;20196;-66
2023/01/11 09:00:05;;;;;;;1.47;1.37;;;8.10;99.90;;;;;;4164900;28;20246;-65
2023/01/11 09:02:07;;;;;;;1.27;0.93;;;8.00;99.90;;;;;;4178197;28;20839;-66
2023/01/11 09:04:08;;;;;;;2.93;2.30;;;7.80;99.90;;;;;;4164142;28;20220;-65
2023/01/11 09:06:08;;;;;;;1.43;1.17;;;7.70;99.90;;;;;;4177658;28;20238;-65
2023/01/11 09:08:10;;;;;;;1.30;1.00;;;7.70;99.90;;;;;;4164970;28;20169;-66
2023/01/11 09:10:11;;;;;;;2.40;1.50;;;7.60;99.90;;;;;;4177535;28;20188;-66
2023/01/11 09:12:13;;;;;;;2.33;1.30;;;7.40;99.90;;;;;;4165803;28;20204;-66
2023/01/11 09:14:13;;;;;;;3.00;1.60;;;7.20;99.90;;;;;;4176976;28;20715;-65
2023/01/11 09:16:14;;;;;;;3.97;2.13;;;7.20;99.90;;;;;;4165972;28;20230;-65
2023/01/11 09:18:15;;;;;;;2.57;2.00;;;6.90;99.90;;;;;;4176583;28;20184;-65
2023/01/11 09:20:16;;;;;;;2.80;2.20;;;6.90;99.90;;;;;;4167133;28;20176;-66
2023/01/11 09:22:17;;;;;;;2.00;1.50;;;6.90;99.90;;;;;;4174992;28;20807;-64
2023/01/11 09:24:18;;;;;;;2.67;1.50;;;6.80;99.90;;;;;;4163880;28;20189;-65
2023/01/11 09:26:19;;;;;;;1.83;1.43;;;6.80;99.90;;;;;;4167191;28;20206;-64
2023/01/11 09:28:20;;;;;;;2.50;1.03;;;7.00;99.90;;;;;;4157978;28;20196;-65
2023/01/11 09:30:22;;;;;;;1.37;1.27;;;7.30;99.90;;;;;;4166943;28;20200;-65
2023/01/11 09:32:23;;;;;;;0.90;0.50;;;7.60;99.90;;;;;;4175139;28;20205;-65
2023/01/11 09:34:26;;;;;;;0.70;0.70;;;7.90;99.90;;;;;;4162956;28;20236;-66
2023/01/11 09:36:27;;;;;;;1.10;1.00;;;8.10;99.90;;;;;;4166763;28;20656;-64
2023/01/11 09:38:29;;;;;;;1.00;0.57;;;8.30;99.90;;;;;;4174561;28;20282;-65
2023/01/11 09:40:55;;;;;;;0.50;0.50;;;8.50;99.90;;;;;;4167780;28;20606;-65
2023/01/11 09:43:00;;;;;;;1.63;1.10;;;8.60;99.90;;;;;;4170518;28;20186;-65
2023/01/11 09:45:20;;;;;;;0.53;0.53;;;8.40;99.90;;;;;;4171876;28;20181;-65
2023/01/11 09:47:39;;;;;;;0.80;0.80;;;8.40;99.90;;;;;;4165331;28;20209;-65
2023/01/11 09:49:46;;;;;;;0.93;0.93;;;8.30;99.90;;;;;;4145291;28;20178;-66
2023/01/11 09:51:48;;;;;;;0.40;0.40;;;8.30;99.90;;;;;;4176226;28;20210;-64
2023/01/11 09:53:51;;;;;;;0.70;0.70;;;8.30;99.90;;;;;;4163062;28;20177;-65
2023/01/11 09:55:55;;;;;;;0.60;0.60;;;8.30;99.90;;;;;;4179057;28;20243;-65
2023/01/11 09:58:23;;;;;;;0.70;0.70;;;8.40;99.90;;;;;;4164426;28;20185;-64
2023/01/11 10:00:32;;;;;;;0.43;0.43;;;8.40;99.90;;;;;;4170287;28;20199;-65
2023/01/11 10:03:16;;;;;;;0.60;0.40;;;8.40;99.90;;;;;;4173979;28;20173;-65
2023/01/11 10:05:18;;;;;;;0.53;0.53;;;8.40;99.90;;;;;;4174169;28;20207;-65
2023/01/11 10:08:23;;;;;;;1.60;1.50;;;8.50;99.90;;;;;;4166714;28;20192;-64
2023/01/11 10:10:26;;;;;;;0.80;0.70;;;8.40;99.90;;;;;;4152597;28;20177;-64
2023/01/11 10:13:17;;;;;;;2.30;2.20;;;8.30;99.90;;;;;;4174747;28;20192;-64
2023/01/11 10:15:44;;;;;;;0.87;0.67;;;8.40;99.90;;;;;;4173868;28;20294;-64
2023/01/11 10:18:24;;;;;;;0.90;0.60;;;8.40;99.90;;;;;;4162767;28;20655;-64
2023/01/11 10:20:34;;;;;;;0.73;0.70;;;8.40;99.90;;;;;;4154142;28;20263;-64
2023/01/11 10:22:47;;;;;;;1.43;0.90;;;8.30;99.90;;;;;;4171704;28;20569;-63
2023/01/11 10:25:15;;;;;;;1.80;0.70;;;8.40;99.90;;;;;;4169633;28;20226;-64
2023/01/11 10:27:39;;;;;;;1.20;0.80;;;8.30;99.90;;;;;;4157349;28;20188;-65
2023/01/11 10:32:20;;;;;;;0.70;0.70;;;8.40;99.90;;;;;;4162398;28;20266;-64
2023/01/11 10:37:26;;;;;;;1.10;0.83;;;8.50;99.90;;;;;;4172365;28;20185;-65
2023/01/11 10:40:02;;;;;;;0.50;0.50;;;8.50;99.90;;;;;;4164144;28;20617;-64
2023/01/11 10:42:25;;;;;;;0.70;0.60;;;8.40;99.90;;;;;;4158951;28;20200;-64
2023/01/11 10:44:41;;;;;;;2.10;1.90;;;8.30;99.90;;;;;;4160890;28;20157;-65
2023/01/11 10:46:48;;;;;;;0.73;0.50;;;8.30;99.90;;;;;;4159960;28;20165;-64
2023/01/11 10:49:02;;;;;;;0.50;0.50;;;8.30;99.90;;;;;;4162365;28;20774;-65
2023/01/11 10:51:23;;;;;;;3.47;0.80;;;8.40;99.90;;;;;;4160864;28;20299;-65
2023/01/11 10:53:34;;;;;;;0.73;0.60;;;8.40;99.90;;;;;;4157857;28;20180;-65
2023/01/11 10:56:08;;;;;;;1.50;0.70;;;8.40;99.90;;;;;;4144771;28;20169;-65
2023/01/11 10:58:52;;;;;;;0.73;0.63;;;8.50;99.90;;;;;;4144067;28;20193;-65
2023/01/11 11:01:25;;;;;;;1.00;0.50;;;8.60;99.90;;;;;;4146063;28;20753;-65
2023/01/11 11:03:47;;;;;;;0.60;0.50;;;8.60;99.90;;;;;;4145878;28;20154;-65
2023/01/11 11:06:11;;;;;;;0.50;0.50;;;8.40;99.90;;;;;;4144460;28;20177;-64
2023/01/11 11:08:41;;;;;;;4.80;1.67;;;8.40;99.90;;;;;;4144894;28;20181;-64
2023/01/11 11:11:01;;;;;;;0.70;0.63;;;8.40;99.90;;;;;;4130590;28;20567;-64
2023/01/11 11:13:19;;;;;;;0.80;0.70;;;8.50;99.90;;;;;;4145777;28;20189;-64
2023/01/11 11:15:38;;;;;;;2.13;1.10;;;8.50;99.90;;;;;;4145782;28;20209;-64
2023/01/11 11:17:44;;;;;;;0.80;0.70;;;8.40;99.90;;;;;;4143787;28;20204;-64
2023/01/11 11:19:45;;;;;;;1.53;1.03;;;8.40;99.90;;;;;;4144337;28;20193;-64
2023/01/11 11:21:47;;;;;;;1.73;0.90;;;8.50;99.90;;;;;;4150687;28;20207;-65
2023/01/11 11:23:57;;;;;;;1.80;1.17;;;8.60;99.90;;;;;;4149789;28;20261;-65
2023/01/11 11:26:01;;;;;;;0.70;0.67;;;8.50;99.90;;;;;;4149681;28;20169;-65
2023/01/11 11:28:25;;;;;;;1.63;0.93;;;8.50;99.90;;;;;;4149248;28;20212;-64
2023/01/11 11:30:37;;;;;;;0.90;0.63;;;8.50;99.90;;;;;;4151005;28;20173;-64
2023/01/11 11:32:45;;;;;;;1.77;1.20;;;8.50;99.90;;;;;;4149832;28;20606;-65
2023/01/11 11:34:50;;;;;;;2.60;1.00;;;8.50;99.90;;;;;;4149745;28;20173;-65
2023/01/11 11:36:51;;;;;;;1.30;1.20;;;8.40;99.90;;;;;;4148901;28;20181;-65
2023/01/11 11:39:28;;;;;;;2.60;2.50;;;8.30;99.90;;;;;;4149449;28;20208;-65
2023/01/11 11:41:28;;;;;;;0.70;0.60;;;8.20;99.90;;;;;;4149292;28;20197;-65